Time;durP1;ratioP1;P1;durP2;ratioP2;P2;SDS_P1;SDS_P2;PMS_P1;PMS_P2;Temp;Humidity;BMP_temperature;BMP_pressure;BME280_temperature;BME280_humidity;BME280_pressure;Samples;Min_cycle;Max_cycle;Signal;HPM_P1;HPM_P2
2021/12/27 00:01:34;;;;;;;;;;;;;;;8.33;61.29;99189.13;4959829;28;6973;-70
2021/12/27 00:04:00;;;;;;;;;;;;;;;8.33;60.56;99192.53;4963467;28;6824;-70
2021/12/27 00:06:26;;;;;;;;;;;;;;;8.34;61.12;99185.75;4941058;28;7013;-70
2021/12/27 00:08:52;;;;;;;;;;;;;;;8.36;61.01;99183.28;4960056;28;6903;-70
2021/12/27 00:11:18;;;;;;;;;;;;;;;8.37;61.20;99180.75;4959266;28;6795;-70
2021/12/27 00:13:44;;;;;;;;;;;;;;;8.40;61.09;99183.44;4977388;28;7983;-70
2021/12/27 00:16:10;;;;;;;;;;;;;;;8.41;60.18;99182.63;4958599;28;6880;-70
2021/12/27 00:18:37;;;;;;;;;;;;;;;8.44;60.96;99187.84;4959519;28;6955;-70
2021/12/27 00:21:04;;;;;;;;;;;;;;;8.45;61.21;99179.38;4945486;28;7006;-70
2021/12/27 00:23:30;;;;;;;;;;;;;;;8.47;60.40;99177.72;4959314;28;7893;-70
2021/12/27 00:25:55;;;;;;;;;;;;;;;8.47;61.46;99177.72;4943045;28;7353;-70
2021/12/27 00:28:21;;;;;;;;;;;;;;;8.48;61.18;99182.03;4961360;28;7885;-70
2021/12/27 00:30:47;;;;;;;;;;;;;;;8.50;60.47;99179.53;4958472;28;6891;-70
2021/12/27 00:33:13;;;;;;;;;;;;;;;8.49;61.47;99182.91;4961721;28;6951;-70
2021/12/27 00:35:40;;;;;;;;;;;;;;;8.48;60.50;99173.50;4944115;28;7014;-70
2021/12/27 00:38:06;;;;;;;;;;;;;;;8.50;60.97;99168.44;4960963;28;8259;-70
2021/12/27 00:40:32;;;;;;;;;;;;;;;8.51;60.50;99170.22;4943823;28;6897;-70
2021/12/27 00:42:58;;;;;;;;;;;;;;;8.51;60.36;99170.22;4957493;28;7892;-70
2021/12/27 00:45:24;;;;;;;;;;;;;;;8.50;61.22;99163.31;4959028;28;6919;-70
2021/12/27 00:47:51;;;;;;;;;;;;;;;8.52;61.16;99164.31;4957579;28;6975;-70
2021/12/27 00:50:17;;;;;;;;;;;;;;;8.48;60.76;99161.59;4961018;28;7007;-70
2021/12/27 00:52:42;;;;;;;;;;;;;;;8.48;60.76;99153.94;4959849;28;6792;-70
2021/12/27 00:55:12;;;;;;;;;;;;;;;8.51;60.83;99158.31;4958078;28;6784;-70
2021/12/27 00:57:38;;;;;;;;;;;;;;;8.49;60.02;99147.16;4959194;28;6823;-70
2021/12/27 01:00:09;;;;;;;;;;;;;;;8.48;61.55;99148.81;4959890;28;6892;-70
2021/12/27 01:02:35;;;;;;;;;;;;;;;8.48;60.88;99148.81;4977244;28;7061;-70
2021/12/27 01:05:01;;;;;;;;;;;;;;;8.48;60.85;99147.97;4957565;28;6808;-70
2021/12/27 01:07:27;;;;;;;;;;;;;;;8.47;60.48;99141.13;4958256;28;6911;-70
2021/12/27 01:12:47;;;;;;;;;;;;;;;8.41;60.65;99135.78;4957342;28;7216;-70
2021/12/27 01:17:48;;;;;;;;;;;;;;;8.32;60.66;99146.53;4958510;28;6816;-70
2021/12/27 01:20:23;;;;;;;;;;;;;;;8.28;60.42;99143.00;4943724;28;7680;-71
2021/12/27 01:22:51;;;;;;;;;;;;;;;8.24;60.10;99146.25;4961218;28;6905;-70
2021/12/27 01:25:18;;;;;;;;;;;;;;;8.19;60.81;99137.56;4942490;28;7123;-70
2021/12/27 01:27:44;;;;;;;;;;;;;;;8.16;60.96;99138.31;4957931;28;6827;-70
2021/12/27 01:30:19;;;;;;;;;;;;;;;8.16;60.96;99138.31;4961608;28;6784;-70
2021/12/27 01:32:53;;;;;;;;;;;;;;;8.15;61.15;99134.00;4958640;28;6812;-70
2021/12/27 01:35:21;;;;;;;;;;;;;;;8.15;61.09;99141.66;4961005;28;8076;-70
2021/12/27 01:37:50;;;;;;;;;;;;;;;8.16;61.95;99135.75;4960586;28;7015;-70
2021/12/27 01:40:19;;;;;;;;;;;;;;;8.18;60.86;99136.66;4958278;28;6819;-70
2021/12/27 01:43:14;;;;;;;;;;;;;;;8.18;61.31;99139.22;4960262;28;6816;-70
2021/12/27 01:45:56;;;;;;;;;;;;;;;8.18;61.01;99141.78;4957676;28;6902;-70
2021/12/27 01:48:29;;;;;;;;;;;;;;;8.22;61.73;99144.47;4958339;28;6885;-71
2021/12/27 01:50:59;;;;;;;;;;;;;;;8.26;61.16;99143.75;4961139;28;7016;-70
2021/12/27 01:53:28;;;;;;;;;;;;;;;8.28;61.32;99137.00;4959137;28;6824;-70
2021/12/27 01:55:56;;;;;;;;;;;;;;;8.33;62.08;99133.81;4959397;28;6824;-70
2021/12/27 01:58:23;;;;;;;;;;;;;;;8.38;60.71;99135.69;4942146;28;7202;-70
2021/12/27 02:00:53;;;;;;;;;;;;;;;8.41;61.69;99140.88;4956874;28;6804;-70
2021/12/27 02:03:24;;;;;;;;;;;;;;;8.46;61.23;99140.25;4959920;28;9146;-70
2021/12/27 02:05:50;;;;;;;;;;;;;;;8.47;60.94;99139.44;4955368;28;6796;-70
2021/12/27 02:08:16;;;;;;;;;;;;;;;8.50;61.37;99127.56;4959314;28;6875;-71
2021/12/27 02:10:43;;;;;;;;;;;;;;;8.51;60.90;99127.66;4957805;28;6946;-71
2021/12/27 02:13:10;;;;;;;;;;;;;;;8.51;60.93;99132.78;4957666;28;6839;-71
2021/12/27 02:15:36;;;;;;;;;;;;;;;8.50;60.69;99130.13;4958364;28;6831;-71
2021/12/27 02:18:04;;;;;;;;;;;;;;;8.48;60.60;99127.53;4956233;28;6824;-70
2021/12/27 02:20:34;;;;;;;;;;;;;;;8.48;62.00;99130.09;4957828;28;7880;-70
2021/12/27 02:23:08;;;;;;;;;;;;;;;8.49;61.19;99144.59;4958783;28;6811;-71
2021/12/27 02:25:34;;;;;;;;;;;;;;;8.51;61.69;99127.66;4958308;28;7145;-71
2021/12/27 02:28:05;;;;;;;;;;;;;;;8.53;61.78;99123.47;4959648;28;6800;-71
2021/12/27 02:30:31;;;;;;;;;;;;;;;8.56;61.70;99118.50;4957994;28;6808;-71
2021/12/27 02:33:03;;;;;;;;;;;;;;;8.59;61.23;99121.16;4958214;28;7510;-71
2021/12/27 02:35:38;;;;;;;;;;;;;;;8.61;61.08;99121.22;4956060;28;6808;-71
2021/12/27 02:38:08;;;;;;;;;;;;;;;8.62;61.21;99122.97;4958131;28;7153;-71
2021/12/27 02:40:34;;;;;;;;;;;;;;;8.64;61.32;99121.31;4960096;28;7221;-71
2021/12/27 02:43:07;;;;;;;;;;;;;;;8.64;61.35;99117.88;4943586;28;7130;-71
2021/12/27 02:45:40;;;;;;;;;;;;;;;8.63;60.73;99117.03;4961660;28;7213;-71
2021/12/27 02:48:08;;;;;;;;;;;;;;;8.63;60.91;99117.03;4959048;28;7201;-71
2021/12/27 02:50:35;;;;;;;;;;;;;;;8.64;61.00;99113.66;4955862;28;6903;-71
2021/12/27 02:53:05;;;;;;;;;;;;;;;8.65;60.79;99117.94;4958171;28;6827;-71
2021/12/27 02:55:31;;;;;;;;;;;;;;;8.66;61.68;99106.91;4955926;28;7162;-71
2021/12/27 02:57:58;;;;;;;;;;;;;;;8.69;60.84;99098.50;4960175;28;6816;-71
2021/12/27 03:00:32;;;;;;;;;;;;;;;8.69;61.75;99096.81;4957097;28;6823;-71
2021/12/27 03:02:58;;;;;;;;;;;;;;;8.70;61.78;99092.56;4961523;28;6815;-71
2021/12/27 03:05:28;;;;;;;;;;;;;;;8.70;61.48;99092.56;4961038;28;6815;-71
2021/12/27 03:07:57;;;;;;;;;;;;;;;8.70;61.16;99098.56;4958976;28;6831;-71
2021/12/27 03:10:27;;;;;;;;;;;;;;;8.68;61.00;99097.59;4947017;28;6983;-71
2021/12/27 03:12:56;;;;;;;;;;;;;;;8.67;61.88;99090.75;4961091;28;7033;-71
2021/12/27 03:15:23;;;;;;;;;;;;;;;8.67;61.21;99092.47;4960641;28;7640;-71
2021/12/27 03:17:53;;;;;;;;;;;;;;;8.68;61.39;99087.38;4960503;28;6820;-71
2021/12/27 03:20:22;;;;;;;;;;;;;;;8.70;61.56;99085.78;4962244;28;6820;-71
2021/12/27 03:22:48;;;;;;;;;;;;;;;8.72;61.45;99084.16;4958013;28;7296;-71
2021/12/27 03:25:22;;;;;;;;;;;;;;;8.74;61.43;99084.22;4943962;28;8027;-71
2021/12/27 03:27:49;;;;;;;;;;;;;;;8.75;61.16;99086.78;4961580;28;7266;-71
2021/12/27 03:30:23;;;;;;;;;;;;;;;8.78;61.70;99086.03;4945385;28;6966;-71
2021/12/27 03:32:50;;;;;;;;;;;;;;;8.78;61.93;99086.03;4944194;28;6887;-71
2021/12/27 03:35:25;;;;;;;;;;;;;;;8.77;60.47;99074.09;4961997;28;8360;-71
2021/12/27 03:37:56;;;;;;;;;;;;;;;8.74;60.75;99079.94;4963980;28;7439;-71
2021/12/27 03:40:23;;;;;;;;;;;;;;;8.69;61.12;99070.38;4950965;28;7290;-71
2021/12/27 03:42:50;;;;;;;;;;;;;;;8.62;60.42;99069.31;4949663;28;8116;-71
2021/12/27 03:45:32;;;;;;;;;;;;;;;8.57;61.24;99066.59;4963534;28;9915;-71
2021/12/27 03:47:58;;;;;;;;;;;;;;;8.52;61.27;99060.44;4965020;28;6804;-71
2021/12/27 03:50:25;;;;;;;;;;;;;;;8.48;61.11;99067.09;4963385;28;7672;-71
2021/12/27 03:52:53;;;;;;;;;;;;;;;8.48;61.42;99063.69;4964474;28;7909;-71
2021/12/27 03:55:20;;;;;;;;;;;;;;;8.47;60.81;99056.84;4963015;28;8506;-71
2021/12/27 03:57:52;;;;;;;;;;;;;;;8.46;61.99;99053.41;4963447;28;6804;-71
2021/12/27 04:02:56;;;;;;;;;;;;;;;8.47;61.83;99051.75;4946130;28;6985;-71
2021/12/27 04:05:24;;;;;;;;;;;;;;;8.47;61.27;99056.84;4961178;28;7872;-71
2021/12/27 04:07:59;;;;;;;;;;;;;;;8.45;61.63;99054.25;4960601;28;8075;-72
2021/12/27 04:10:26;;;;;;;;;;;;;;;8.46;60.73;99058.53;4959430;28;7213;-71
2021/12/27 04:12:52;;;;;;;;;;;;;;;8.46;61.15;99058.53;4959817;28;6823;-71
2021/12/27 04:15:18;;;;;;;;;;;;;;;8.48;60.77;99056.88;4961221;28;7107;-71
2021/12/27 04:17:43;;;;;;;;;;;;;;;8.50;60.88;99048.41;4959943;28;6990;-71
2021/12/27 04:20:09;;;;;;;;;;;;;;;8.51;61.22;99051.06;4962886;28;7178;-71
2021/12/27 04:22:35;;;;;;;;;;;;;;;8.53;61.89;99048.56;4961233;28;6887;-71
2021/12/27 04:25:02;;;;;;;;;;;;;;;8.54;61.81;99040.94;4961808;28;6801;-71
2021/12/27 04:27:27;;;;;;;;;;;;;;;8.58;61.49;99047.03;4959335;28;7301;-71
2021/12/27 04:29:53;;;;;;;;;;;;;;;8.59;60.80;99039.44;4960324;28;8859;-71
2021/12/27 04:32:19;;;;;;;;;;;;;;;8.63;61.55;99042.97;4960986;28;6891;-71
2021/12/27 04:34:45;;;;;;;;;;;;;;;8.66;61.94;99040.50;4947097;28;7963;-71
2021/12/27 04:37:11;;;;;;;;;;;;;;;8.68;61.62;99028.63;4958973;28;6812;-72
2021/12/27 04:39:37;;;;;;;;;;;;;;;8.71;60.82;99033.88;4959914;28;6804;-72
2021/12/27 04:42:07;;;;;;;;;;;;;;;8.72;61.23;99032.16;4960651;28;6791;-72
2021/12/27 04:44:33;;;;;;;;;;;;;;;8.74;61.25;99033.13;4961661;28;7166;-72
2021/12/27 04:47:00;;;;;;;;;;;;;;;8.77;61.26;99029.78;4959103;28;7021;-72
2021/12/27 04:49:25;;;;;;;;;;;;;;;8.78;61.83;99040.06;4960428;28;8099;-71
2021/12/27 04:51:51;;;;;;;;;;;;;;;8.80;61.45;99030.75;4960089;28;6886;-71
2021/12/27 04:54:16;;;;;;;;;;;;;;;8.81;61.41;99021.41;4944427;28;6810;-71
2021/12/27 04:56:42;;;;;;;;;;;;;;;8.82;61.33;99025.69;4960949;28;6812;-71
2021/12/27 04:59:08;;;;;;;;;;;;;;;8.82;62.20;99024.00;4944150;28;6784;-71
2021/12/27 05:01:34;;;;;;;;;;;;;;;8.84;61.84;99024.06;4959516;28;6820;-71
2021/12/27 05:04:00;;;;;;;;;;;;;;;8.85;62.18;99030.91;4961018;28;6947;-71
2021/12/27 05:06:27;;;;;;;;;;;;;;;8.85;61.95;99024.13;4956468;28;7149;-71
2021/12/27 05:08:53;;;;;;;;;;;;;;;8.87;62.06;99029.25;4940388;28;6967;-71
2021/12/27 05:11:20;;;;;;;;;;;;;;;8.89;62.10;99037.88;4960016;28;7153;-71
2021/12/27 05:13:46;;;;;;;;;;;;;;;8.90;61.85;99024.25;4958133;28;7177;-71
2021/12/27 05:16:12;;;;;;;;;;;;;;;8.91;61.15;99026.00;4958639;28;6807;-71
2021/12/27 05:18:38;;;;;;;;;;;;;;;8.92;61.52;99027.72;4959314;28;7028;-71
2021/12/27 05:21:04;;;;;;;;;;;;;;;8.94;61.17;99020.13;4961074;28;6788;-71
2021/12/27 05:23:31;;;;;;;;;;;;;;;8.95;61.47;99012.50;4959780;28;6960;-71
2021/12/27 05:25:57;;;;;;;;;;;;;;;8.96;61.29;99014.22;4940451;28;6816;-71
2021/12/27 05:28:22;;;;;;;;;;;;;;;8.97;61.82;99015.94;4958044;28;6772;-71
2021/12/27 05:30:51;;;;;;;;;;;;;;;8.98;61.38;99010.06;4958033;28;6805;-72
2021/12/27 05:33:18;;;;;;;;;;;;;;;9.00;62.04;99008.41;4958937;28;7304;-72
2021/12/27 05:35:45;;;;;;;;;;;;;;;9.01;61.18;98999.91;4957801;28;7234;-71
2021/12/27 05:38:12;;;;;;;;;;;;;;;9.03;62.21;98999.97;4961822;28;7027;-72
2021/12/27 05:40:38;;;;;;;;;;;;;;;9.05;61.40;99000.88;4959775;28;6801;-71
2021/12/27 05:43:06;;;;;;;;;;;;;;;9.06;61.55;99007.72;4956548;28;7169;-72
2021/12/27 05:45:35;;;;;;;;;;;;;;;9.09;61.59;98999.31;4941332;28;7393;-72
2021/12/27 05:48:01;;;;;;;;;;;;;;;9.11;60.89;99002.75;4958400;28;7040;-72
2021/12/27 05:50:27;;;;;;;;;;;;;;;9.13;61.41;99001.13;4959417;28;6784;-71
2021/12/27 05:52:52;;;;;;;;;;;;;;;9.15;62.06;99002.03;4955932;28;7161;-71
2021/12/27 05:55:19;;;;;;;;;;;;;;;9.16;61.55;98996.97;4957327;28;6974;-71
2021/12/27 05:57:45;;;;;;;;;;;;;;;9.19;61.59;98995.31;4957021;28;7368;-71
2021/12/27 06:00:13;;;;;;;;;;;;;;;9.20;60.76;98987.72;4973027;28;7777;-71
2021/12/27 06:02:41;;;;;;;;;;;;;;;9.21;61.71;98994.56;4960244;28;6828;-71
2021/12/27 06:05:08;;;;;;;;;;;;;;;9.23;61.01;98997.19;4955931;28;7257;-71
2021/12/27 06:07:33;;;;;;;;;;;;;;;9.22;61.28;98988.63;4956506;28;7311;-71
2021/12/27 06:09:59;;;;;;;;;;;;;;;9.25;61.44;98992.97;4957938;28;6787;-71
2021/12/27 06:12:25;;;;;;;;;;;;;;;9.26;61.59;98990.44;4974065;28;6803;-71
2021/12/27 06:14:51;;;;;;;;;;;;;;;9.27;61.04;98984.53;4959350;28;6799;-71
2021/12/27 06:17:16;;;;;;;;;;;;;;;9.27;60.95;98986.19;4941205;28;6879;-71
2021/12/27 06:19:42;;;;;;;;;;;;;;;9.27;60.81;98983.66;4957044;28;6839;-71
2021/12/27 06:22:09;;;;;;;;;;;;;;;9.26;61.22;98990.44;4937924;28;7279;-71
2021/12/27 06:24:35;;;;;;;;;;;;;;;9.24;61.50;98989.53;4959077;28;7315;-71
2021/12/27 06:27:01;;;;;;;;;;;;;;;9.21;61.28;98991.13;4961971;28;6808;-72
2021/12/27 06:29:26;;;;;;;;;;;;;;;9.14;61.37;98985.84;4956606;28;7373;-72
2021/12/27 06:31:52;;;;;;;;;;;;;;;9.10;61.44;98990.81;4958793;28;7495;-72
2021/12/27 06:34:18;;;;;;;;;;;;;;;9.03;61.73;98990.59;4956598;28;6804;-72
2021/12/27 06:36:44;;;;;;;;;;;;;;;8.96;60.75;98998.88;4939990;28;6917;-72
2021/12/27 06:39:10;;;;;;;;;;;;;;;8.89;61.56;98996.97;4959714;28;6983;-72
2021/12/27 06:41:36;;;;;;;;;;;;;;;8.79;60.87;98988.13;4957884;28;6887;-72
2021/12/27 06:44:03;;;;;;;;;;;;;;;8.72;61.35;98989.63;4957963;28;6823;-71
2021/12/27 06:46:29;;;;;;;;;;;;;;;8.65;61.33;98992.78;4956506;28;7634;-71
2021/12/27 06:48:55;;;;;;;;;;;;;;;8.63;60.97;98986.75;4958674;28;6842;-71
2021/12/27 06:51:21;;;;;;;;;;;;;;;8.61;61.63;98984.16;4943290;28;6942;-71
2021/12/27 06:53:47;;;;;;;;;;;;;;;8.62;61.75;98979.94;4942713;28;6987;-71
2021/12/27 06:56:12;;;;;;;;;;;;;;;8.66;60.94;98980.91;4958112;28;7300;-71
2021/12/27 06:58:38;;;;;;;;;;;;;;;8.67;62.32;98982.63;4957360;28;6874;-71
2021/12/27 07:01:05;;;;;;;;;;;;;;;8.67;61.91;98978.38;4954479;28;6779;-71
2021/12/27 07:03:31;;;;;;;;;;;;;;;8.67;61.92;98978.38;4957023;28;6887;-71
2021/12/27 07:05:56;;;;;;;;;;;;;;;8.67;61.47;98973.25;4940182;28;8719;-71
2021/12/27 07:08:22;;;;;;;;;;;;;;;8.66;61.22;98968.13;4938255;28;7001;-71
2021/12/27 07:10:49;;;;;;;;;;;;;;;8.61;61.14;98973.94;4957823;28;7406;-72
2021/12/27 07:13:15;;;;;;;;;;;;;;;8.56;61.05;98965.28;4962643;28;6824;-72
2021/12/27 07:15:41;;;;;;;;;;;;;;;8.48;61.40;98957.31;4958898;28;9210;-72
2021/12/27 07:18:22;;;;;;;;;;;;;;;8.41;60.79;98963.03;4957002;28;6815;-72
2021/12/27 07:20:50;;;;;;;;;;;;;;;8.32;60.85;98965.28;4961792;28;7153;-72
2021/12/27 07:23:17;;;;;;;;;;;;;;;8.25;60.24;98965.88;4952301;28;7868;-72
2021/12/27 07:25:42;;;;;;;;;;;;;;;8.16;61.14;98964.75;4961251;28;6986;-72
2021/12/27 07:28:08;;;;;;;;;;;;;;;8.11;61.74;98957.75;4960570;28;7158;-72
2021/12/27 07:30:34;;;;;;;;;;;;;;;8.08;62.15;98957.66;4945218;28;6815;-72
2021/12/27 07:32:59;;;;;;;;;;;;;;;8.06;61.82;98953.38;4935721;28;7112;-72
2021/12/27 07:35:27;;;;;;;;;;;;;;;8.10;61.31;98958.56;4961221;28;6987;-72
2021/12/27 07:37:53;;;;;;;;;;;;;;;8.15;62.79;98959.59;4946855;28;6812;-72
2021/12/27 07:40:18;;;;;;;;;;;;;;;8.18;62.19;98952.91;4960547;28;7019;-72
2021/12/27 07:42:45;;;;;;;;;;;;;;;8.24;61.68;98943.72;4961590;28;6822;-72
2021/12/27 07:45:11;;;;;;;;;;;;;;;8.29;62.61;98953.28;4962321;28;7567;-72
2021/12/27 07:47:37;;;;;;;;;;;;;;;8.34;62.71;98956.00;4960048;28;7211;-72
2021/12/27 07:50:05;;;;;;;;;;;;;;;8.42;62.37;98958.78;4960178;28;7147;-72
2021/12/27 07:52:31;;;;;;;;;;;;;;;8.49;61.95;98945.41;4960301;28;7893;-72
2021/12/27 07:54:57;;;;;;;;;;;;;;;8.58;62.07;98950.84;4972537;28;7092;-72
2021/12/27 07:57:23;;;;;;;;;;;;;;;8.66;62.29;98953.66;4959267;28;6783;-72
2021/12/27 07:59:49;;;;;;;;;;;;;;;8.74;62.60;98956.47;4975463;28;6795;-72
2021/12/27 08:02:16;;;;;;;;;;;;;;;8.82;62.80;98954.16;4960782;28;7214;-72
2021/12/27 08:04:43;;;;;;;;;;;;;;;8.91;63.19;98956.13;4939635;28;7238;-72
2021/12/27 08:07:09;;;;;;;;;;;;;;;8.97;62.29;98953.78;4955169;28;7015;-72
2021/12/27 08:09:35;;;;;;;;;;;;;;;9.06;62.31;98958.28;4960538;28;7845;-72
2021/12/27 08:12:01;;;;;;;;;;;;;;;9.14;62.79;98956.84;4960575;28;7466;-72
2021/12/27 08:14:26;;;;;;;;;;;;;;;9.22;62.11;98952.84;4961100;28;6999;-72
2021/12/27 08:16:52;;;;;;;;;;;;;;;9.27;62.29;98942.75;4960231;28;6983;-72
2021/12/27 08:19:18;;;;;;;;;;;;;;;9.33;62.08;98940.38;4959049;28;6874;-72
2021/12/27 08:21:44;;;;;;;;;;;;;;;9.40;62.63;98938.88;4958373;28;7033;-72
2021/12/27 08:24:10;;;;;;;;;;;;;;;9.47;62.24;98934.78;4960425;28;7380;-72
2021/12/27 08:26:37;;;;;;;;;;;;;;;9.54;62.24;98932.44;4961144;28;7265;-72
2021/12/27 08:29:09;;;;;;;;;;;;;;;9.60;61.94;98929.19;4960404;28;6947;-72
2021/12/27 08:31:35;;;;;;;;;;;;;;;9.67;61.99;98932.81;4959258;28;6993;-72
2021/12/27 08:34:00;;;;;;;;;;;;;;;9.72;62.29;98926.09;4960201;28;6804;-72
2021/12/27 08:36:26;;;;;;;;;;;;;;;9.77;62.27;98923.69;4961307;28;7067;-72
2021/12/27 08:38:52;;;;;;;;;;;;;;;9.80;61.99;98922.06;4945422;28;6788;-72
2021/12/27 08:41:19;;;;;;;;;;;;;;;9.85;62.31;98923.09;4957732;28;6796;-72
2021/12/27 08:43:45;;;;;;;;;;;;;;;9.91;62.33;98916.38;4960782;28;6792;-72
2021/12/27 08:46:12;;;;;;;;;;;;;;;9.96;62.26;98925.91;4939340;28;6812;-72
2021/12/27 08:48:40;;;;;;;;;;;;;;;10.00;62.12;98916.63;4958846;28;6811;-72
2021/12/27 08:51:06;;;;;;;;;;;;;;;10.03;62.38;98919.25;4960030;28;6836;-72
2021/12/27 08:53:31;;;;;;;;;;;;;;;10.06;61.65;98921.03;4960007;28;8234;-72
2021/12/27 08:55:57;;;;;;;;;;;;;;;10.10;62.36;98918.59;4960933;28;7276;-72
2021/12/27 08:58:23;;;;;;;;;;;;;;;10.16;62.23;98915.31;4942706;28;6780;-72
2021/12/27 09:00:49;;;;;;;;;;;;;;;10.22;62.22;98910.38;4956516;28;7896;-72
2021/12/27 09:03:15;;;;;;;;;;;;;;;10.31;62.51;98901.19;4961455;28;6791;-72
2021/12/27 09:05:42;;;;;;;;;;;;;;;10.38;62.45;98906.50;4960185;28;7713;-72
2021/12/27 09:08:09;;;;;;;;;;;;;;;10.48;62.62;98901.63;4958600;28;6895;-72
2021/12/27 09:10:35;;;;;;;;;;;;;;;10.57;62.31;98904.41;4951452;28;6816;-72
2021/12/27 09:13:02;;;;;;;;;;;;;;;10.64;61.63;98910.56;4942239;28;7411;-72
2021/12/27 09:15:30;;;;;;;;;;;;;;;10.69;61.96;98904.69;4960118;28;7297;-72
2021/12/27 09:17:56;;;;;;;;;;;;;;;10.74;61.81;98906.53;4959618;28;6812;-72
2021/12/27 09:20:24;;;;;;;;;;;;;;;10.80;62.07;98896.41;4960598;28;7139;-72
2021/12/27 09:22:50;;;;;;;;;;;;;;;10.86;62.03;98905.91;4961260;28;6836;-72
2021/12/27 09:25:16;;;;;;;;;;;;;;;10.89;62.00;98906.00;4956001;28;6878;-72
2021/12/27 09:27:42;;;;;;;;;;;;;;;10.92;61.53;98906.06;4958030;28;6868;-72
2021/12/27 09:30:08;;;;;;;;;;;;;;;10.96;61.89;98895.91;4959585;28;7141;-72
2021/12/27 09:32:34;;;;;;;;;;;;;;;11.03;61.60;98896.06;4957252;28;6796;-72
2021/12/27 09:35:00;;;;;;;;;;;;;;;11.09;61.80;98891.06;4957659;28;8197;-72
2021/12/27 09:37:25;;;;;;;;;;;;;;;11.13;61.68;98890.31;4947456;28;6866;-72
2021/12/27 09:39:53;;;;;;;;;;;;;;;11.19;61.76;98890.41;4951264;28;7214;-72
2021/12/27 09:42:25;;;;;;;;;;;;;;;11.25;61.62;98889.66;4949867;28;7005;-72
2021/12/27 09:44:54;;;;;;;;;;;;;;;11.29;61.56;98888.91;4956644;28;7928;-72
2021/12/27 09:47:20;;;;;;;;;;;;;;;11.35;61.60;98890.75;4944978;28;6804;-72
2021/12/27 09:49:49;;;;;;;;;;;;;;;11.42;61.58;98891.72;4957627;28;8423;-72
2021/12/27 09:52:15;;;;;;;;;;;;;;;11.49;61.73;98888.47;4954326;28;7928;-72
2021/12/27 09:54:46;;;;;;;;;;;;;;;11.57;61.52;98892.03;4942131;28;6949;-72
2021/12/27 09:57:13;;;;;;;;;;;;;;;11.63;61.51;98889.56;4953308;28;6997;-72
2021/12/27 09:59:39;;;;;;;;;;;;;;;11.70;61.91;98890.59;4956002;28;7086;-72
2021/12/27 10:02:05;;;;;;;;;;;;;;;11.80;61.51;98895.06;4959186;28;7003;-72
2021/12/27 10:04:32;;;;;;;;;;;;;;;11.94;61.36;98895.31;4952916;28;7807;-72
2021/12/27 10:06:57;;;;;;;;;;;;;;;12.04;61.50;98886.09;4958034;28;6966;-72
2021/12/27 10:09:23;;;;;;;;;;;;;;;12.14;61.21;98888.81;4939482;28;7071;-72
2021/12/27 10:11:49;;;;;;;;;;;;;;;12.22;61.27;98889.81;4958029;28;7133;-72
2021/12/27 10:14:16;;;;;;;;;;;;;;;12.28;61.25;98887.38;4939097;28;6780;-72
2021/12/27 10:16:48;;;;;;;;;;;;;;;12.35;61.30;98873.75;4956532;28;7017;-72
2021/12/27 10:19:18;;;;;;;;;;;;;;;12.47;61.17;98872.25;4958848;28;6815;-72
2021/12/27 10:21:51;;;;;;;;;;;;;;;12.59;60.74;98863.84;4939463;28;7182;-72
2021/12/27 10:24:19;;;;;;;;;;;;;;;12.67;60.55;98864.00;4959618;28;6832;-72
2021/12/27 10:26:50;;;;;;;;;;;;;;;12.70;60.59;98857.19;4955631;28;7394;-72
2021/12/27 10:29:23;;;;;;;;;;;;;;;12.71;60.72;98865.75;4954876;28;6804;-72
2021/12/27 10:31:57;;;;;;;;;;;;;;;12.72;59.72;98859.75;4953151;28;7876;-72
2021/12/27 10:34:38;;;;;;;;;;;;;;;12.71;59.88;98853.78;4937463;28;7263;-72
2021/12/27 10:37:13;;;;;;;;;;;;;;;12.74;59.91;98852.94;4956694;28;6984;-72
2021/12/27 10:39:57;;;;;;;;;;;;;;;12.79;60.59;98859.00;4954513;28;7064;-72
2021/12/27 10:42:46;;;;;;;;;;;;;;;12.87;60.34;98856.53;4954498;28;7152;-72
2021/12/27 10:45:21;;;;;;;;;;;;;;;13.00;60.31;98855.88;4957901;28;6918;-72
2021/12/27 10:47:51;;;;;;;;;;;;;;;13.20;60.74;98852.69;4955380;28;6820;-72
2021/12/27 10:50:24;;;;;;;;;;;;;;;13.36;60.40;98855.44;4957546;28;7054;-72
2021/12/27 10:52:57;;;;;;;;;;;;;;;13.50;60.17;98855.63;4953326;28;6824;-72
2021/12/27 10:55:30;;;;;;;;;;;;;;;13.63;59.24;98856.63;4960438;28;6947;-72
2021/12/27 10:58:23;;;;;;;;;;;;;;;13.73;59.76;98850.75;4942234;28;7134;-72
2021/12/27 11:01:09;;;;;;;;;;;;;;;13.81;59.83;98845.66;4943363;28;7004;-72
2021/12/27 11:03:42;;;;;;;;;;;;;;;13.86;58.58;98846.59;4961273;28;6815;-72
2021/12/27 11:06:16;;;;;;;;;;;;;;;13.86;59.15;98842.31;4959537;28;8269;-72
2021/12/27 11:08:44;;;;;;;;;;;;;;;13.86;58.55;98838.84;4960438;28;6815;-72
2021/12/27 11:11:10;;;;;;;;;;;;;;;13.87;59.13;98850.88;4960387;28;7023;-72
2021/12/27 11:13:37;;;;;;;;;;;;;;;13.86;58.29;98847.47;4942633;28;7477;-72
2021/12/27 11:16:03;;;;;;;;;;;;;;;13.84;58.95;98848.28;4937855;28;8650;-72
2021/12/27 11:18:29;;;;;;;;;;;;;;;13.81;58.32;98843.09;4958033;28;7481;-72
2021/12/27 11:21:11;;;;;;;;;;;;;;;13.75;59.05;98844.75;4961919;28;7258;-72
2021/12/27 11:23:37;;;;;;;;;;;;;;;13.72;58.46;98844.75;4943253;28;7360;-72
2021/12/27 11:26:08;;;;;;;;;;;;;;;13.70;59.33;98830.13;4957286;28;7058;-72
2021/12/27 11:28:40;;;;;;;;;;;;;;;13.70;59.17;98824.97;4957899;28;6800;-72
2021/12/27 11:31:22;;;;;;;;;;;;;;;13.70;58.31;98823.25;4956337;28;6800;-72
2021/12/27 11:33:56;;;;;;;;;;;;;;;13.68;59.14;98819.78;4954236;28;6868;-72
2021/12/27 11:36:29;;;;;;;;;;;;;;;13.68;59.31;98813.81;4955154;28;7038;-72
2021/12/27 11:38:56;;;;;;;;;;;;;;;13.67;58.71;98807.78;4957175;28;6867;-72
2021/12/27 11:41:36;;;;;;;;;;;;;;;13.66;58.20;98811.19;4959082;28;6974;-72
2021/12/27 11:44:12;;;;;;;;;;;;;;;13.64;59.03;98802.59;4953369;28;7319;-72
2021/12/27 11:46:46;;;;;;;;;;;;;;;13.64;59.09;98794.88;4954514;28;7857;-72
2021/12/27 11:49:14;;;;;;;;;;;;;;;13.68;58.98;98795.78;4958324;28;7214;-72
2021/12/27 11:51:40;;;;;;;;;;;;;;;13.70;58.63;98789.78;4961074;28;6915;-72
2021/12/27 11:54:31;;;;;;;;;;;;;;;13.71;58.82;98790.66;4943454;28;7074;-72
2021/12/27 11:56:57;;;;;;;;;;;;;;;13.68;58.46;98786.34;4956632;28;6854;-72
2021/12/27 11:59:26;;;;;;;;;;;;;;;13.64;58.21;98784.59;4956362;28;7118;-72
2021/12/27 12:02:24;;;;;;;;;;;;;;;13.60;58.86;98782.81;4953615;28;7171;-72
2021/12/27 12:04:57;;;;;;;;;;;;;;;13.58;58.15;98781.94;4961754;28;6975;-72
2021/12/27 12:07:32;;;;;;;;;;;;;;;13.57;59.10;98780.22;4943754;28;6917;-72
2021/12/27 12:10:13;;;;;;;;;;;;;;;13.57;58.22;98782.78;4948511;28;6879;-72
2021/12/27 12:12:39;;;;;;;;;;;;;;;13.56;59.03;98781.06;4943242;28;6987;-72
2021/12/27 12:15:08;;;;;;;;;;;;;;;13.57;58.55;98769.94;4955499;28;6951;-72
2021/12/27 12:17:48;;;;;;;;;;;;;;;13.59;59.36;98771.66;4956729;28;6808;-72
2021/12/27 12:20:36;;;;;;;;;;;;;;;13.66;59.33;98762.28;4958781;28;7016;-72
2021/12/27 12:23:09;;;;;;;;;;;;;;;13.69;59.32;98752.00;4960520;28;6796;-72
2021/12/27 12:25:37;;;;;;;;;;;;;;;13.73;58.80;98753.78;4961656;28;8320;-72
2021/12/27 12:28:15;;;;;;;;;;;;;;;13.78;58.83;98750.38;4961251;28;6804;-72
2021/12/27 12:30:50;;;;;;;;;;;;;;;13.83;58.39;98753.84;4961300;28;6975;-72
2021/12/27 12:33:22;;;;;;;;;;;;;;;13.88;58.35;98749.59;4942519;28;6906;-72
2021/12/27 12:36:04;;;;;;;;;;;;;;;13.96;59.03;98749.69;4950238;28;7106;-72
2021/12/27 12:38:32;;;;;;;;;;;;;;;14.00;59.29;98741.97;4946695;28;7013;-72
2021/12/27 12:41:13;;;;;;;;;;;;;;;14.06;59.09;98742.88;4960268;28;6816;-72
2021/12/27 12:43:57;;;;;;;;;;;;;;;14.09;58.69;98741.19;4933428;28;7334;-72
2021/12/27 12:46:44;;;;;;;;;;;;;;;14.13;59.16;98739.50;4941249;28;7395;-72
2021/12/27 12:49:18;;;;;;;;;;;;;;;14.14;58.39;98743.78;4934848;28;8064;-72
2021/12/27 12:52:06;;;;;;;;;;;;;;;14.16;57.91;98742.06;4944410;28;6908;-72
2021/12/27 12:54:38;;;;;;;;;;;;;;;14.16;58.54;98739.50;4947625;28;6811;-72
2021/12/27 12:57:23;;;;;;;;;;;;;;;14.16;58.04;98752.38;4956278;28;7051;-72
2021/12/27 12:59:56;;;;;;;;;;;;;;;14.14;58.31;98754.09;4958168;28;7213;-72
2021/12/27 13:02:29;;;;;;;;;;;;;;;14.13;58.07;98752.38;4958591;28;6819;-72
2021/12/27 13:05:07;;;;;;;;;;;;;;;14.12;59.16;98743.75;4954550;28;6849;-72
2021/12/27 13:07:55;;;;;;;;;;;;;;;14.11;58.17;98748.94;4957507;28;6820;-72
2021/12/27 13:10:38;;;;;;;;;;;;;;;14.07;58.97;98744.59;4948410;28;8328;-72
2021/12/27 13:13:16;;;;;;;;;;;;;;;14.02;58.63;98742.84;4957450;28;7672;-72
2021/12/27 13:15:53;;;;;;;;;;;;;;;14.01;58.69;98743.69;4959789;28;6955;-72
2021/12/27 13:18:26;;;;;;;;;;;;;;;13.97;58.49;98747.09;4956350;28;6827;-72
2021/12/27 13:21:02;;;;;;;;;;;;;;;13.93;58.25;98754.78;4953394;28;6824;-72
2021/12/27 13:23:32;;;;;;;;;;;;;;;13.88;59.01;98754.75;4958982;28;7269;-72